Saga Sapphire — 9HOF8 — position and weather

sailwx.info

Track history (hours):
 
Tides and Currents Weather Stations Pressure Air Temp Water Temp Dewpoint Dewpoint Depression Visibility Wind Speed Wind Dir Waves Ship Positions

Saga Sapphire

Last reported at 2016-Feb-05 21:00 UTC. Time now 2016-Feb-06 11:29 UTC.
Position N 17°06' W 059°18'.

Length 200 m; draft 8.6 m.

Type: Passenger vessel. MMSI: 256208000.

Wind from 130 at 45 knots

Waves 2.5 meters (8 feet), 6 second period

Barometer 1015.7 mb
Air temperature 26.0 ° C
Visibility: greater than 5.4 NM
Dewpoint 22.0 ° C
Water temperature 25.0 ° C

Date/timePositionNaut miles runAvg speedWind from/ knotsBaromVisibWave heightAir tempDewpointWater temp
2016-Feb-05 21:00N 17°06' W 059°18'34414.3 130 / 451015.7 5.4 2.526.022.025.0
2016-Feb-04 21:00N 20°36' W 054°30'   140 / 251014.510.8 1.023.921.724.0
2016-Feb-01 01:00N 34°54' W 033°12'8016.0 130 / 221027.427.0 1.516.315.4
2016-Jan-31 20:00N 35°48' W 032°00'11815.8 150 / 251027.7 5.4 0.517.716.415.0
2016-Jan-31 12:31N 37°04' W 030°07'30 9.1
2016-Jan-31 09:11N 36°50' W 030°41'19 3.8
2016-Jan-31 04:11N 36°39' W 030°60'1115.8
2016-Jan-31 03:32N 36°44' W 030°49'1816.0
2016-Jan-31 02:24N 36°54' W 030°30'2915.8
2016-Jan-31 00:33N 37°10' W 029°59'1615.9
2016-Jan-30 23:33N 37°18' W 029°42'1615.8
2016-Jan-30 22:33N 37°27' W 029°25'1615.5
2016-Jan-30 21:33N 37°35' W 029°09'1616.0
2016-Jan-30 20:33N 37°44' W 028°52'1615.9
2016-Jan-30 19:33N 37°52' W 028°35'1616.0
2016-Jan-30 18:33N 38°00' W 028°18'1615.9
2016-Jan-30 17:33N 38°09' W 028°01'1615.8
2016-Jan-30 16:33N 38°17' W 027°43'1615.8
2016-Jan-30 15:33N 38°26' W 027°26'1615.9
2016-Jan-30 14:33N 38°34' W 027°09'1110.8
2016-Jan-30 13:33N 38°43' W 027°03'1 0.5
2016-Jan-30 12:32N 38°43' W 027°03'0 0.0
2016-Jan-30 11:20N 38°43' W 027°03'0 0.0
2016-Jan-30 10:32N 38°43' W 027°03'0 0.0
2016-Jan-30 09:29N 38°43' W 027°03'0 0.0
2016-Jan-30 08:23N 38°43' W 027°03'0 0.0
2016-Jan-30 07:32N 38°43' W 027°03'0 0.0
2016-Jan-30 06:32N 38°43' W 027°03'0 0.0
2016-Jan-30 05:32N 38°43' W 027°03'0 0.0
2016-Jan-30 04:32N 38°43' W 027°03'0 0.0
2016-Jan-30 03:32N 38°43' W 027°03'0 0.0
2016-Jan-30 02:32N 38°43' W 027°03'0 0.0
2016-Jan-30 01:32N 38°43' W 027°03'0 0.0
2016-Jan-30 00:32N 38°43' W 027°03'0 0.0
2016-Jan-29 23:32N 38°43' W 027°03'0 0.0
2016-Jan-29 22:32N 38°43' W 027°03'0 0.0
2016-Jan-29 21:32N 38°43' W 027°03'0 0.0
2016-Jan-29 20:32N 38°43' W 027°03'0 0.0
2016-Jan-29 19:32N 38°43' W 027°03'2 1.8
2016-Jan-29 18:33N 38°44' W 027°01'1211.6
2016-Jan-29 17:33N 38°50' W 026°49'1615.7
2016-Jan-29 16:33N 38°59' W 026°32'2015.9
2016-Jan-29 15:16N 39°10' W 026°10'25915.9
2016-Jan-28 23:00N 41°30' W 021°24'6813.7 230 / 201040.210.8 3.012.4 4.0
2016-Jan-28 18:00N 42°06' W 020°06'5016.6 230 / 201039.010.8 0.512.2 4.813.0
2016-Jan-28 15:00N 42°36' W 019°12'   270 / 151038.410.8 1.512.6 6.511.0
Track history (hours):
 
Tides and Currents Weather Stations Pressure Air Temp Water Temp Dewpoint Dewpoint Depression Visibility Wind Speed Wind Dir Waves Ship Positions

Saga Sapphire

Last reported at 2016-Feb-05 21:00 UTC. Time now 2016-Feb-06 11:29 UTC.
Position N 17°06' W 059°18'.

Length 200 m; draft 8.6 m.

Type: Passenger vessel. MMSI: 256208000.

Wind from 130 at 45 knots

Waves 2.5 meters (8 feet), 6 second period

Barometer 1015.7 mb
Air temperature 26.0 ° C
Visibility: greater than 5.4 NM
Dewpoint 22.0 ° C
Water temperature 25.0 ° C

Date/timePositionNaut miles runAvg speedWind from/ knotsBaromVisibWave heightAir tempDewpointWater temp
2016-Feb-05 21:00N 17°06' W 059°18'34414.3 130 / 451015.7 5.4 2.526.022.025.0
2016-Feb-04 21:00N 20°36' W 054°30'   140 / 251014.510.8 1.023.921.724.0
2016-Feb-01 01:00N 34°54' W 033°12'8016.0 130 / 221027.427.0 1.516.315.4
2016-Jan-31 20:00N 35°48' W 032°00'11815.8 150 / 251027.7 5.4 0.517.716.415.0
2016-Jan-31 12:31N 37°04' W 030°07'30 9.1
2016-Jan-31 09:11N 36°50' W 030°41'19 3.8
2016-Jan-31 04:11N 36°39' W 030°60'1115.8
2016-Jan-31 03:32N 36°44' W 030°49'1816.0
2016-Jan-31 02:24N 36°54' W 030°30'2915.8
2016-Jan-31 00:33N 37°10' W 029°59'1615.9
2016-Jan-30 23:33N 37°18' W 029°42'1615.8
2016-Jan-30 22:33N 37°27' W 029°25'1615.5
2016-Jan-30 21:33N 37°35' W 029°09'1616.0
2016-Jan-30 20:33N 37°44' W 028°52'1615.9
2016-Jan-30 19:33N 37°52' W 028°35'1616.0
2016-Jan-30 18:33N 38°00' W 028°18'1615.9
2016-Jan-30 17:33N 38°09' W 028°01'1615.8
2016-Jan-30 16:33N 38°17' W 027°43'1615.8
2016-Jan-30 15:33N 38°26' W 027°26'1615.9
2016-Jan-30 14:33N 38°34' W 027°09'1110.8
2016-Jan-30 13:33N 38°43' W 027°03'1 0.5
2016-Jan-30 12:32N 38°43' W 027°03'0 0.0
2016-Jan-30 11:20N 38°43' W 027°03'0 0.0
2016-Jan-30 10:32N 38°43' W 027°03'0 0.0
2016-Jan-30 09:29N 38°43' W 027°03'0 0.0
2016-Jan-30 08:23N 38°43' W 027°03'0 0.0
2016-Jan-30 07:32N 38°43' W 027°03'0 0.0
2016-Jan-30 06:32N 38°43' W 027°03'0 0.0
2016-Jan-30 05:32N 38°43' W 027°03'0 0.0
2016-Jan-30 04:32N 38°43' W 027°03'0 0.0
2016-Jan-30 03:32N 38°43' W 027°03'0 0.0
2016-Jan-30 02:32N 38°43' W 027°03'0 0.0
2016-Jan-30 01:32N 38°43' W 027°03'0 0.0
2016-Jan-30 00:32N 38°43' W 027°03'0 0.0
2016-Jan-29 23:32N 38°43' W 027°03'0 0.0
2016-Jan-29 22:32N 38°43' W 027°03'0 0.0
2016-Jan-29 21:32N 38°43' W 027°03'0 0.0
2016-Jan-29 20:32N 38°43' W 027°03'0 0.0
2016-Jan-29 19:32N 38°43' W 027°03'2 1.8
2016-Jan-29 18:33N 38°44' W 027°01'1211.6
2016-Jan-29 17:33N 38°50' W 026°49'1615.7
2016-Jan-29 16:33N 38°59' W 026°32'2015.9
2016-Jan-29 15:16N 39°10' W 026°10'25915.9
2016-Jan-28 23:00N 41°30' W 021°24'6813.7 230 / 201040.210.8 3.012.4 4.0
2016-Jan-28 18:00N 42°06' W 020°06'5016.6 230 / 201039.010.8 0.512.2 4.813.0
2016-Jan-28 15:00N 42°36' W 019°12'   270 / 151038.410.8 1.512.6 6.511.0

Dump ship's entire track history